Αναφορές Αεροδρομίων

 

KSJC - San Jose, California, USA
Distance from station: ΒΑ 14km
Ενημερώθηκε: 23/05/2024 20:53
Αίθριος
Αίθριος
 Ανεμος από ΒΒΔ
Ανεμος: ΒΒΔ 9 km/h
Θερμοκρασία: 21°C
Σημείο Δρόσου: 7°C
Υγρασία: 40%
Βαρόμετρο: 1013.5 hPa
Clouds: Αίθριος
Visibility: 16 km
2024/05/23 17:53 KSJC 231753Z 33005KT 10SM CLR 21/07 A2993 RMK AO2 SLP135 T02110072 10211 20111 58004
KNUQ - Moffett Nas/Mtn, California, USA
Distance from station: Β 14km
Ενημερώθηκε: 23/05/2024 20:50
Haze, Αίθριος
Haze, Αίθριος
 Ανεμος από Β
Ανεμος: Β 9 km/h
Θερμοκρασία: 18°C
Σημείο Δρόσου: 8°C
Υγρασία: 52%
Βαρόμετρο: 1013.9 hPa
Περίληψη: Haze
Clouds: Αίθριος
Visibility: 10 km
2024/05/23 17:50 KNUQ 231750Z AUTO 35005KT 6SM HZ CLR 18/08 A2994 RMK AO2
 
KPAO - Palo Alto, California, USA
Distance from station: ΒΒΔ 23km
Ενημερώθηκε: 23/05/2024 20:47
Αίθριος
Αίθριος
 Ανεμος από varies
Ανεμος: varies 7 km/h
Θερμοκρασία: 17°C
Σημείο Δρόσου: 9°C
Υγρασία: 59%
Βαρόμετρο: 1013.9 hPa
Clouds: Αίθριος
Visibility: 16 km
2024/05/23 17:47 KPAO 231747Z VRB04KT 10SM SKC 17/09 A2994
KRHV - San Jose/Reid, California, USA
Distance from station: ΑΒΑ 19km
Ενημερώθηκε: 23/05/2024 20:47
Αίθριος
Αίθριος
 Ανεμος από calm
Ανεμος: Απνοια
Θερμοκρασία: 19°C
Σημείο Δρόσου: 7°C
Υγρασία: 46%
Βαρόμετρο: 1013.9 hPa
Clouds: Αίθριος
Visibility: 16 km
2024/05/23 17:47 KRHV 231747Z 00000KT 10SM SKC 19/07 A2994
 
KOAK - Oakland, California, USA
Distance from station: ΒΒΔ 50km
Ενημερώθηκε: 23/05/2024 20:53
Αίθριος
Αίθριος
 Ανεμος από ΝΔ
Ανεμος: ΝΔ 9 km/h
Θερμοκρασία: 17°C
Σημείο Δρόσου: 8°C
Υγρασία: 56%
Βαρόμετρο: 1014.2 hPa
Clouds: Αίθριος
Visibility: 16 km
2024/05/23 17:53 KOAK 231753Z 23005KT 10SM CLR 17/08 A2995 RMK AO2 SLP141 T01670078 10167 20100 50002
KSQL - San Carlos Airpo, California, USA
Distance from station: ΒΔ 34km
Ενημερώθηκε: 23/05/2024 20:47
Αίθριος
Αίθριος
 Ανεμος από Β
Ανεμος: Β 11 km/h
Θερμοκρασία: 18°C
Σημείο Δρόσου: 10°C
Υγρασία: 60%
Βαρόμετρο: 1014.2 hPa
Clouds: Αίθριος
Visibility: 16 km
2024/05/23 17:47 KSQL 231747Z 35006KT 10SM CLR 18/10 A2995
 
KSFO - San Francisco, California, USA
Distance from station: ΒΔ 49km
Ενημερώθηκε: 23/05/2024 20:56
Αίθριος
Αίθριος
 Ανεμος από ΒΔ
Ανεμος: ΒΔ 24 km/h
Θερμοκρασία: 19°C
Σημείο Δρόσου: 8°C
Υγρασία: 49%
Βαρόμετρο: 1013.9 hPa
Clouds: Αίθριος
Visibility: 16 km
2024/05/23 17:56 KSFO 231756Z 31013KT 10SM CLR 19/08 A2994 RMK AO2 SLP139 T01890078 10189 20111 50000
KE16 - San Martin, California, USA
Distance from station: ΑΝΑ 43km
Ενημερώθηκε: 23/05/2024 20:55
Αίθριος
Αίθριος
 Ανεμος από calm
Ανεμος: Απνοια
Θερμοκρασία: 17°C
Σημείο Δρόσου: 8°C
Υγρασία: 56%
Βαρόμετρο: 1014.2 hPa
Clouds: Αίθριος
Visibility: 14 km
2024/05/23 17:55 KE16 231755Z AUTO 00000KT 9SM CLR 17/08 A2995 RMK AO2 PWINO PNO
 
KWVI - Watsonville, California, USA
Distance from station: ΝΝΑ 44km
Ενημερώθηκε: 23/05/2024 20:53
Αίθριος
Αίθριος
 Ανεμος από calm
Ανεμος: Απνοια
Θερμοκρασία: 17°C
Σημείο Δρόσου: 9°C
Υγρασία: 59%
Βαρόμετρο: 1014.2 hPa
Clouds: Αίθριος
Visibility: 16 km
2024/05/23 17:53 KWVI 231753Z AUTO 00000KT 10SM CLR 17/09 A2995 RMK AO2 SLP142 T01670094 10167 20106 58003
KHAF - Half Moon Bay, California, USA
Distance from station: ΔΒΔ 50km
Ενημερώθηκε: 23/05/2024 20:55
Haze, Αίθριος
Haze, Αίθριος
 Ανεμος από ΒΔ
Ανεμος: ΒΔ 24 km/h
Θερμοκρασία: 13°C
Σημείο Δρόσου: 11°C
Υγρασία: 88%
Βαρόμετρο: 1015.2 hPa
Περίληψη: Haze
Clouds: Αίθριος
Visibility: 6 km
2024/05/23 17:55 KHAF 231755Z AUTO 32013KT 4SM HZ CLR 13/11 A2998 RMK AO2
 
KHWD - Hayward, California, USA
Distance from station: Β 44km
Ενημερώθηκε: 23/05/2024 20:54
Αίθριος
Αίθριος
 Ανεμος από ΔΝΔ
Ανεμος: ΔΝΔ 15 km/h
Θερμοκρασία: 18°C
Σημείο Δρόσου: 6°C
Υγρασία: 46%
Βαρόμετρο: 1013.9 hPa
Clouds: Αίθριος
Visibility: 16 km
2024/05/23 17:54 KHWD 231754Z 24008KT 10SM CLR 18/06 A2994 RMK AO2 SLP147 T01830061 10183 20117 50001
KLVK - Livermore, California, USA
Distance from station: ΒΒΑ 51km
Ενημερώθηκε: 23/05/2024 20:53
Αίθριος
Αίθριος
 Ανεμος από Δ
Ανεμος: Δ 13 km/h
Θερμοκρασία: 20°C
Σημείο Δρόσου: 7°C
Υγρασία: 43%
Βαρόμετρο: 1013.2 hPa
Clouds: Αίθριος
Visibility: 16 km
2024/05/23 17:53 KLVK 231753Z 26007KT 10SM CLR 20/07 A2992 RMK AO2 SLP128 T02000067 10206 20094 58004